Natures Way Challenger — WDF7294 — position and weather

sailwx.info

Track history (hours):
 
Tides and Currents Weather Stations Pressure Air Temp Water Temp Dewpoint Dewpoint Depression Visibility Wind Speed Wind Dir Waves Ship Positions

Natures Way Challenger

Owner: Natures Way Marine, LLC, Theodore, AL. More information available from US FCC via Universal Licensing System and Coast Guard Vessel Documentation Center.

Last reported at 2016-May-19 03:29 UTC. Time now 2016-Sep-25 19:11 UTC.
Position N 29°60' W 089°58'.
Warning: this ship's position is months out of date.

Length 14 m.

Type: Towing. MMSI: 367483050.

Date/timePositionNaut miles runAvg speedWind from/ knotsBaromVisibWave heightAir tempDewpointWater temp
2016-May-19 03:29N 29°60' W 089°58'2 2.4
2016-May-19 02:33N 29°60' W 090°01'2 1.8
2016-May-19 01:33N 29°58' W 090°02'2 2.2
2016-May-19 00:33N 29°56' W 089°60'2 2.0
2016-May-18 23:33N 29°55' W 089°59'7 6.2
2016-May-18 22:26N 29°50' W 090°04'1 0.9
2016-May-18 21:22N 29°50' W 090°04'2 0.1
2016-May-18 00:30N 29°51' W 090°01'0 0.0
2016-May-17 23:29N 29°51' W 090°01'0 0.0
2016-May-17 22:30N 29°51' W 090°01'0 0.0
2016-May-17 20:17N 29°51' W 090°01'2 2.8
2016-May-17 19:33N 29°50' W 090°03'5 5.4
2016-May-17 18:32N 29°54' W 089°59'1 1.5
2016-May-17 17:33N 29°55' W 089°59'4 3.4
2016-May-17 16:30N 29°58' W 090°02'3 3.6
2016-May-17 15:32N 30°00' W 089°58'2 0.5
2016-May-17 11:18N 30°00' W 089°56'4 5.7
2016-May-17 10:33N 29°60' W 090°01'2 2.4
2016-May-17 09:33N 29°58' W 090°02'1 0.7
2016-May-17 08:33N 29°58' W 090°02'3 2.5
2016-May-17 07:34N 29°56' W 089°60'1 1.0
2016-May-17 06:33N 29°56' W 089°59'1 1.1
2016-May-17 05:33N 29°55' W 089°58'0 0.1
2016-May-17 04:33N 29°55' W 089°58'3 1.6
2016-May-17 02:29N 29°52' W 090°01'2 2.6
2016-May-17 01:33N 29°50' W 090°03'1 0.1
2016-May-16 17:21N 29°51' W 090°04'2 1.0
2016-May-16 15:24N 29°49' W 090°04'2 0.3
2016-May-16 08:22N 29°51' W 090°04'1 1.7
2016-May-16 07:33N 29°51' W 090°02'6 2.5
2016-May-16 05:19N 29°55' W 089°58'5 6.5
2016-May-16 04:33N 29°56' W 090°04'3 2.8
2016-May-16 03:33N 29°54' W 090°06'  
2016-May-12 03:14N 29°56' W 093°02'2 2.7
2016-May-12 02:31N 29°56' W 093°04'3 2.7
2016-May-12 01:33N 29°56' W 093°07'3 2.7
2016-May-12 00:33N 29°56' W 093°10'3 2.6
2016-May-11 23:33N 29°59' W 093°12'3 2.7
2016-May-11 22:33N 30°01' W 093°14'2 2.3
2016-May-11 21:34N 30°02' W 093°16'3 2.8
2016-May-11 20:33N 30°05' W 093°17'2 1.9
2016-May-11 19:33N 30°06' W 093°19'0 0.3
2016-May-11 18:33N 30°06' W 093°19'0 0.1
2016-May-11 17:33N 30°06' W 093°19'0 0.0
2016-May-11 16:33N 30°06' W 093°19'3 2.9
2016-May-11 15:33N 30°04' W 093°21'4 3.6
2016-May-11 14:33N 30°04' W 093°25'4 3.9
2016-May-11 13:32N 30°04' W 093°30'4 3.9
2016-May-11 12:33N 30°04' W 093°34'4 3.6
2016-May-11 11:31N 30°04' W 093°38'  
Track history (hours):
 
Tides and Currents Weather Stations Pressure Air Temp Water Temp Dewpoint Dewpoint Depression Visibility Wind Speed Wind Dir Waves Ship Positions

Natures Way Challenger

Owner: Natures Way Marine, LLC, Theodore, AL. More information available from US FCC via Universal Licensing System and Coast Guard Vessel Documentation Center.

Last reported at 2016-May-19 03:29 UTC. Time now 2016-Sep-25 19:11 UTC.
Position N 29°60' W 089°58'.
Warning: this ship's position is months out of date.

Length 14 m.

Type: Towing. MMSI: 367483050.

Date/timePositionNaut miles runAvg speedWind from/ knotsBaromVisibWave heightAir tempDewpointWater temp
2016-May-19 03:29N 29°60' W 089°58'2 2.4
2016-May-19 02:33N 29°60' W 090°01'2 1.8
2016-May-19 01:33N 29°58' W 090°02'2 2.2
2016-May-19 00:33N 29°56' W 089°60'2 2.0
2016-May-18 23:33N 29°55' W 089°59'7 6.2
2016-May-18 22:26N 29°50' W 090°04'1 0.9
2016-May-18 21:22N 29°50' W 090°04'2 0.1
2016-May-18 00:30N 29°51' W 090°01'0 0.0
2016-May-17 23:29N 29°51' W 090°01'0 0.0
2016-May-17 22:30N 29°51' W 090°01'0 0.0
2016-May-17 20:17N 29°51' W 090°01'2 2.8
2016-May-17 19:33N 29°50' W 090°03'5 5.4
2016-May-17 18:32N 29°54' W 089°59'1 1.5
2016-May-17 17:33N 29°55' W 089°59'4 3.4
2016-May-17 16:30N 29°58' W 090°02'3 3.6
2016-May-17 15:32N 30°00' W 089°58'2 0.5
2016-May-17 11:18N 30°00' W 089°56'4 5.7
2016-May-17 10:33N 29°60' W 090°01'2 2.4
2016-May-17 09:33N 29°58' W 090°02'1 0.7
2016-May-17 08:33N 29°58' W 090°02'3 2.5
2016-May-17 07:34N 29°56' W 089°60'1 1.0
2016-May-17 06:33N 29°56' W 089°59'1 1.1
2016-May-17 05:33N 29°55' W 089°58'0 0.1
2016-May-17 04:33N 29°55' W 089°58'3 1.6
2016-May-17 02:29N 29°52' W 090°01'2 2.6
2016-May-17 01:33N 29°50' W 090°03'1 0.1
2016-May-16 17:21N 29°51' W 090°04'2 1.0
2016-May-16 15:24N 29°49' W 090°04'2 0.3
2016-May-16 08:22N 29°51' W 090°04'1 1.7
2016-May-16 07:33N 29°51' W 090°02'6 2.5
2016-May-16 05:19N 29°55' W 089°58'5 6.5
2016-May-16 04:33N 29°56' W 090°04'3 2.8
2016-May-16 03:33N 29°54' W 090°06'  
2016-May-12 03:14N 29°56' W 093°02'2 2.7
2016-May-12 02:31N 29°56' W 093°04'3 2.7
2016-May-12 01:33N 29°56' W 093°07'3 2.7
2016-May-12 00:33N 29°56' W 093°10'3 2.6
2016-May-11 23:33N 29°59' W 093°12'3 2.7
2016-May-11 22:33N 30°01' W 093°14'2 2.3
2016-May-11 21:34N 30°02' W 093°16'3 2.8
2016-May-11 20:33N 30°05' W 093°17'2 1.9
2016-May-11 19:33N 30°06' W 093°19'0 0.3
2016-May-11 18:33N 30°06' W 093°19'0 0.1
2016-May-11 17:33N 30°06' W 093°19'0 0.0
2016-May-11 16:33N 30°06' W 093°19'3 2.9
2016-May-11 15:33N 30°04' W 093°21'4 3.6
2016-May-11 14:33N 30°04' W 093°25'4 3.9
2016-May-11 13:32N 30°04' W 093°30'4 3.9
2016-May-11 12:33N 30°04' W 093°34'4 3.6
2016-May-11 11:31N 30°04' W 093°38'  

Dump ship's entire track history